sensor_id;sensor_type;location;lat;lon;timestamp;P1;durP1;ratioP1;P2;durP2;ratioP2
13220;SDS011;6675;48.128;11.478;2024-03-08T00:01:47;16.02;;;7.47;;
13220;SDS011;6675;48.128;11.478;2024-03-08T00:04:13;20.02;;;8.27;;
13220;SDS011;6675;48.128;11.478;2024-03-08T00:06:40;18.02;;;6.68;;
13220;SDS011;6675;48.128;11.478;2024-03-08T00:09:06;17.63;;;7.10;;
13220;SDS011;6675;48.128;11.478;2024-03-08T00:11:35;19.85;;;7.13;;
13220;SDS011;6675;48.128;11.478;2024-03-08T00:14:01;16.08;;;6.85;;
13220;SDS011;6675;48.128;11.478;2024-03-08T00:16:26;17.85;;;7.70;;
13220;SDS011;6675;48.128;11.478;2024-03-08T00:18:52;18.42;;;7.35;;
13220;SDS011;6675;48.128;11.478;2024-03-08T00:21:18;18.45;;;6.93;;
13220;SDS011;6675;48.128;11.478;2024-03-08T00:23:44;16.83;;;7.93;;
13220;SDS011;6675;48.128;11.478;2024-03-08T00:26:09;18.08;;;7.20;;
13220;SDS011;6675;48.128;11.478;2024-03-08T00:28:35;17.45;;;7.28;;
13220;SDS011;6675;48.128;11.478;2024-03-08T00:31:01;17.90;;;7.80;;
13220;SDS011;6675;48.128;11.478;2024-03-08T00:33:27;19.58;;;7.47;;
13220;SDS011;6675;48.128;11.478;2024-03-08T00:35:53;19.63;;;7.57;;
13220;SDS011;6675;48.128;11.478;2024-03-08T00:38:19;21.83;;;7.80;;
13220;SDS011;6675;48.128;11.478;2024-03-08T00:40:45;17.25;;;7.32;;
13220;SDS011;6675;48.128;11.478;2024-03-08T00:43:11;17.88;;;7.38;;
13220;SDS011;6675;48.128;11.478;2024-03-08T00:45:37;19.45;;;7.85;;
13220;SDS011;6675;48.128;11.478;2024-03-08T00:48:03;20.27;;;7.97;;
13220;SDS011;6675;48.128;11.478;2024-03-08T00:50:30;17.65;;;8.02;;
13220;SDS011;6675;48.128;11.478;2024-03-08T00:52:56;20.65;;;8.05;;
13220;SDS011;6675;48.128;11.478;2024-03-08T00:55:22;18.02;;;8.10;;
13220;SDS011;6675;48.128;11.478;2024-03-08T00:57:47;18.38;;;7.53;;
13220;SDS011;6675;48.128;11.478;2024-03-08T01:00:13;18.50;;;8.05;;
13220;SDS011;6675;48.128;11.478;2024-03-08T01:02:39;22.58;;;8.57;;
13220;SDS011;6675;48.128;11.478;2024-03-08T01:05:05;17.48;;;7.25;;
13220;SDS011;6675;48.128;11.478;2024-03-08T01:07:32;17.73;;;7.40;;
13220;SDS011;6675;48.128;11.478;2024-03-08T01:09:59;19.48;;;8.27;;
13220;SDS011;6675;48.128;11.478;2024-03-08T01:12:25;18.52;;;8.20;;
13220;SDS011;6675;48.128;11.478;2024-03-08T01:14:51;20.60;;;8.02;;
13220;SDS011;6675;48.128;11.478;2024-03-08T01:17:17;18.08;;;7.88;;
13220;SDS011;6675;48.128;11.478;2024-03-08T01:19:42;19.67;;;7.65;;
13220;SDS011;6675;48.128;11.478;2024-03-08T01:22:10;17.90;;;7.80;;
13220;SDS011;6675;48.128;11.478;2024-03-08T01:24:35;22.50;;;8.45;;
13220;SDS011;6675;48.128;11.478;2024-03-08T01:27:02;24.50;;;8.90;;
13220;SDS011;6675;48.128;11.478;2024-03-08T01:29:28;24.13;;;8.88;;
13220;SDS011;6675;48.128;11.478;2024-03-08T01:31:57;20.02;;;8.07;;
13220;SDS011;6675;48.128;11.478;2024-03-08T01:34:25;18.80;;;8.18;;
13220;SDS011;6675;48.128;11.478;2024-03-08T01:36:53;24.67;;;9.30;;
13220;SDS011;6675;48.128;11.478;2024-03-08T01:39:20;19.65;;;8.80;;
13220;SDS011;6675;48.128;11.478;2024-03-08T01:41:46;19.95;;;8.40;;
13220;SDS011;6675;48.128;11.478;2024-03-08T01:44:12;21.38;;;8.98;;
13220;SDS011;6675;48.128;11.478;2024-03-08T01:46:43;23.63;;;9.73;;
13220;SDS011;6675;48.128;11.478;2024-03-08T01:52:50;22.38;;;8.75;;
13220;SDS011;6675;48.128;11.478;2024-03-08T01:55:16;20.70;;;8.20;;
13220;SDS011;6675;48.128;11.478;2024-03-08T01:57:55;19.88;;;9.25;;
13220;SDS011;6675;48.128;11.478;2024-03-08T02:00:20;21.23;;;8.75;;
13220;SDS011;6675;48.128;11.478;2024-03-08T02:02:46;23.67;;;9.05;;
13220;SDS011;6675;48.128;11.478;2024-03-08T02:05:16;20.50;;;9.40;;
13220;SDS011;6675;48.128;11.478;2024-03-08T02:07:43;24.15;;;8.60;;
13220;SDS011;6675;48.128;11.478;2024-03-08T02:10:11;21.17;;;8.50;;
13220;SDS011;6675;48.128;11.478;2024-03-08T02:12:40;24.00;;;9.15;;
13220;SDS011;6675;48.128;11.478;2024-03-08T02:15:06;22.38;;;8.82;;
13220;SDS011;6675;48.128;11.478;2024-03-08T02:17:32;23.48;;;9.25;;
13220;SDS011;6675;48.128;11.478;2024-03-08T02:20:01;21.85;;;8.90;;
13220;SDS011;6675;48.128;11.478;2024-03-08T02:22:28;19.83;;;8.90;;
13220;SDS011;6675;48.128;11.478;2024-03-08T02:24:55;19.38;;;8.07;;
13220;SDS011;6675;48.128;11.478;2024-03-08T02:27:24;20.45;;;7.97;;
13220;SDS011;6675;48.128;11.478;2024-03-08T02:29:55;18.35;;;8.13;;
13220;SDS011;6675;48.128;11.478;2024-03-08T02:32:21;20.77;;;8.80;;
13220;SDS011;6675;48.128;11.478;2024-03-08T02:34:47;24.55;;;9.77;;
13220;SDS011;6675;48.128;11.478;2024-03-08T02:37:14;21.83;;;8.85;;
13220;SDS011;6675;48.128;11.478;2024-03-08T02:39:40;22.05;;;8.70;;
13220;SDS011;6675;48.128;11.478;2024-03-08T02:42:06;21.88;;;8.80;;
13220;SDS011;6675;48.128;11.478;2024-03-08T02:44:32;25.67;;;9.07;;
13220;SDS011;6675;48.128;11.478;2024-03-08T02:46:58;22.20;;;8.65;;
13220;SDS011;6675;48.128;11.478;2024-03-08T02:49:24;20.77;;;8.70;;
13220;SDS011;6675;48.128;11.478;2024-03-08T02:51:51;22.63;;;10.15;;
13220;SDS011;6675;48.128;11.478;2024-03-08T02:54:17;23.45;;;9.40;;
13220;SDS011;6675;48.128;11.478;2024-03-08T02:56:44;24.98;;;9.27;;
13220;SDS011;6675;48.128;11.478;2024-03-08T02:59:11;22.42;;;8.90;;
13220;SDS011;6675;48.128;11.478;2024-03-08T03:01:38;19.83;;;8.30;;
13220;SDS011;6675;48.128;11.478;2024-03-08T03:04:04;21.35;;;8.70;;
13220;SDS011;6675;48.128;11.478;2024-03-08T03:06:29;21.50;;;8.85;;
13220;SDS011;6675;48.128;11.478;2024-03-08T03:08:56;22.77;;;8.25;;
13220;SDS011;6675;48.128;11.478;2024-03-08T03:11:22;21.35;;;8.60;;
13220;SDS011;6675;48.128;11.478;2024-03-08T03:13:48;21.08;;;8.02;;
13220;SDS011;6675;48.128;11.478;2024-03-08T03:16:20;21.77;;;9.40;;
13220;SDS011;6675;48.128;11.478;2024-03-08T03:18:46;22.17;;;8.73;;
13220;SDS011;6675;48.128;11.478;2024-03-08T03:21:12;22.10;;;9.52;;
13220;SDS011;6675;48.128;11.478;2024-03-08T03:23:39;25.15;;;9.55;;
13220;SDS011;6675;48.128;11.478;2024-03-08T03:26:05;25.17;;;9.82;;
13220;SDS011;6675;48.128;11.478;2024-03-08T03:28:32;30.52;;;9.98;;
13220;SDS011;6675;48.128;11.478;2024-03-08T03:30:58;29.65;;;11.30;;
13220;SDS011;6675;48.128;11.478;2024-03-08T03:33:24;29.60;;;10.35;;
13220;SDS011;6675;48.128;11.478;2024-03-08T03:35:50;27.50;;;10.43;;
13220;SDS011;6675;48.128;11.478;2024-03-08T03:38:17;26.85;;;10.23;;
13220;SDS011;6675;48.128;11.478;2024-03-08T03:40:44;25.42;;;10.07;;
13220;SDS011;6675;48.128;11.478;2024-03-08T03:43:11;24.55;;;9.65;;
13220;SDS011;6675;48.128;11.478;2024-03-08T03:45:37;25.55;;;10.55;;
13220;SDS011;6675;48.128;11.478;2024-03-08T03:48:04;31.30;;;11.55;;
13220;SDS011;6675;48.128;11.478;2024-03-08T03:50:31;23.92;;;10.15;;
13220;SDS011;6675;48.128;11.478;2024-03-08T03:52:59;25.33;;;10.40;;
13220;SDS011;6675;48.128;11.478;2024-03-08T03:55:25;26.13;;;10.82;;
13220;SDS011;6675;48.128;11.478;2024-03-08T03:57:50;25.77;;;10.82;;
13220;SDS011;6675;48.128;11.478;2024-03-08T04:00:17;29.23;;;11.18;;
13220;SDS011;6675;48.128;11.478;2024-03-08T04:02:43;27.13;;;11.43;;
13220;SDS011;6675;48.128;11.478;2024-03-08T04:05:09;26.92;;;10.43;;
13220;SDS011;6675;48.128;11.478;2024-03-08T04:07:36;24.20;;;9.88;;
13220;SDS011;6675;48.128;11.478;2024-03-08T04:10:02;25.88;;;10.38;;
13220;SDS011;6675;48.128;11.478;2024-03-08T04:12:31;28.45;;;10.57;;
13220;SDS011;6675;48.128;11.478;2024-03-08T04:14:57;29.10;;;11.88;;
13220;SDS011;6675;48.128;11.478;2024-03-08T04:17:23;30.58;;;11.18;;
13220;SDS011;6675;48.128;11.478;2024-03-08T04:19:51;28.88;;;10.10;;
13220;SDS011;6675;48.128;11.478;2024-03-08T04:22:17;35.58;;;11.75;;
13220;SDS011;6675;48.128;11.478;2024-03-08T04:24:43;26.05;;;9.95;;
13220;SDS011;6675;48.128;11.478;2024-03-08T04:27:09;28.90;;;11.55;;
13220;SDS011;6675;48.128;11.478;2024-03-08T04:29:35;28.15;;;10.65;;
13220;SDS011;6675;48.128;11.478;2024-03-08T04:32:02;29.45;;;10.82;;
13220;SDS011;6675;48.128;11.478;2024-03-08T04:34:29;28.52;;;9.82;;
13220;SDS011;6675;48.128;11.478;2024-03-08T04:36:58;32.50;;;11.93;;
13220;SDS011;6675;48.128;11.478;2024-03-08T04:39:24;30.52;;;10.73;;
13220;SDS011;6675;48.128;11.478;2024-03-08T04:41:53;31.00;;;11.77;;
13220;SDS011;6675;48.128;11.478;2024-03-08T04:44:19;30.08;;;11.40;;
13220;SDS011;6675;48.128;11.478;2024-03-08T04:46:45;30.88;;;11.38;;
13220;SDS011;6675;48.128;11.478;2024-03-08T04:49:11;35.58;;;12.07;;
13220;SDS011;6675;48.128;11.478;2024-03-08T04:51:38;32.42;;;10.88;;
13220;SDS011;6675;48.128;11.478;2024-03-08T04:54:03;28.02;;;10.73;;
13220;SDS011;6675;48.128;11.478;2024-03-08T04:56:29;34.80;;;10.77;;
13220;SDS011;6675;48.128;11.478;2024-03-08T04:58:56;30.05;;;10.90;;
13220;SDS011;6675;48.128;11.478;2024-03-08T05:01:22;31.70;;;10.70;;
13220;SDS011;6675;48.128;11.478;2024-03-08T05:03:47;34.38;;;11.98;;
13220;SDS011;6675;48.128;11.478;2024-03-08T05:06:15;29.83;;;12.35;;
13220;SDS011;6675;48.128;11.478;2024-03-08T05:08:41;32.70;;;11.10;;
13220;SDS011;6675;48.128;11.478;2024-03-08T05:11:07;34.05;;;11.52;;
13220;SDS011;6675;48.128;11.478;2024-03-08T05:13:32;31.48;;;10.90;;
13220;SDS011;6675;48.128;11.478;2024-03-08T05:15:59;34.08;;;12.35;;
13220;SDS011;6675;48.128;11.478;2024-03-08T05:18:25;29.00;;;11.38;;
13220;SDS011;6675;48.128;11.478;2024-03-08T05:20:51;32.17;;;12.05;;
13220;SDS011;6675;48.128;11.478;2024-03-08T05:23:17;32.00;;;11.57;;
13220;SDS011;6675;48.128;11.478;2024-03-08T05:25:44;30.67;;;12.05;;
13220;SDS011;6675;48.128;11.478;2024-03-08T05:28:11;28.02;;;10.95;;
13220;SDS011;6675;48.128;11.478;2024-03-08T05:30:38;32.97;;;11.95;;
13220;SDS011;6675;48.128;11.478;2024-03-08T05:33:04;31.90;;;11.65;;
13220;SDS011;6675;48.128;11.478;2024-03-08T05:35:29;34.30;;;12.02;;
13220;SDS011;6675;48.128;11.478;2024-03-08T05:37:55;33.83;;;12.52;;
13220;SDS011;6675;48.128;11.478;2024-03-08T05:40:22;34.33;;;11.05;;
13220;SDS011;6675;48.128;11.478;2024-03-08T05:42:49;36.30;;;12.68;;
13220;SDS011;6675;48.128;11.478;2024-03-08T05:45:17;31.70;;;11.32;;
13220;SDS011;6675;48.128;11.478;2024-03-08T05:47:47;34.40;;;12.50;;
13220;SDS011;6675;48.128;11.478;2024-03-08T05:50:12;35.10;;;12.93;;
13220;SDS011;6675;48.128;11.478;2024-03-08T05:52:40;32.10;;;12.38;;
13220;SDS011;6675;48.128;11.478;2024-03-08T05:55:06;33.97;;;12.32;;
13220;SDS011;6675;48.128;11.478;2024-03-08T05:57:36;36.72;;;13.50;;
13220;SDS011;6675;48.128;11.478;2024-03-08T06:00:05;31.83;;;12.65;;
13220;SDS011;6675;48.128;11.478;2024-03-08T06:02:34;33.63;;;12.20;;
13220;SDS011;6675;48.128;11.478;2024-03-08T06:05:06;39.53;;;13.18;;
13220;SDS011;6675;48.128;11.478;2024-03-08T06:07:36;34.75;;;12.20;;
13220;SDS011;6675;48.128;11.478;2024-03-08T06:10:05;35.58;;;12.23;;
13220;SDS011;6675;48.128;11.478;2024-03-08T06:12:32;34.50;;;13.35;;
13220;SDS011;6675;48.128;11.478;2024-03-08T06:15:02;34.17;;;12.73;;
13220;SDS011;6675;48.128;11.478;2024-03-08T06:17:29;36.20;;;12.55;;
13220;SDS011;6675;48.128;11.478;2024-03-08T06:19:55;35.58;;;12.43;;
13220;SDS011;6675;48.128;11.478;2024-03-08T06:22:21;35.92;;;12.63;;
13220;SDS011;6675;48.128;11.478;2024-03-08T06:24:47;33.97;;;12.40;;
13220;SDS011;6675;48.128;11.478;2024-03-08T06:27:12;30.08;;;12.00;;
13220;SDS011;6675;48.128;11.478;2024-03-08T06:29:39;33.20;;;12.50;;
13220;SDS011;6675;48.128;11.478;2024-03-08T06:32:04;39.13;;;13.18;;
13220;SDS011;6675;48.128;11.478;2024-03-08T06:34:32;33.05;;;11.85;;
13220;SDS011;6675;48.128;11.478;2024-03-08T06:36:59;32.45;;;13.18;;
13220;SDS011;6675;48.128;11.478;2024-03-08T06:39:26;33.22;;;13.02;;
13220;SDS011;6675;48.128;11.478;2024-03-08T06:41:53;37.28;;;12.63;;
13220;SDS011;6675;48.128;11.478;2024-03-08T06:44:19;31.63;;;11.63;;
13220;SDS011;6675;48.128;11.478;2024-03-08T06:46:46;34.00;;;12.98;;
13220;SDS011;6675;48.128;11.478;2024-03-08T06:49:13;29.58;;;11.40;;
13220;SDS011;6675;48.128;11.478;2024-03-08T06:51:40;37.42;;;13.15;;
13220;SDS011;6675;48.128;11.478;2024-03-08T06:54:06;35.83;;;13.30;;
13220;SDS011;6675;48.128;11.478;2024-03-08T06:56:33;33.15;;;12.73;;
13220;SDS011;6675;48.128;11.478;2024-03-08T06:59:00;32.22;;;11.98;;
13220;SDS011;6675;48.128;11.478;2024-03-08T07:01:28;32.90;;;12.43;;
13220;SDS011;6675;48.128;11.478;2024-03-08T07:03:56;33.55;;;12.85;;
13220;SDS011;6675;48.128;11.478;2024-03-08T07:06:27;38.25;;;13.60;;
13220;SDS011;6675;48.128;11.478;2024-03-08T07:08:53;32.15;;;12.55;;
13220;SDS011;6675;48.128;11.478;2024-03-08T07:11:19;36.33;;;13.70;;
13220;SDS011;6675;48.128;11.478;2024-03-08T07:13:45;32.58;;;12.98;;
13220;SDS011;6675;48.128;11.478;2024-03-08T07:16:11;28.45;;;12.02;;
13220;SDS011;6675;48.128;11.478;2024-03-08T07:18:37;33.25;;;13.40;;
13220;SDS011;6675;48.128;11.478;2024-03-08T07:21:05;35.10;;;13.70;;
13220;SDS011;6675;48.128;11.478;2024-03-08T07:23:30;33.67;;;13.30;;
13220;SDS011;6675;48.128;11.478;2024-03-08T07:26:15;33.55;;;12.55;;
13220;SDS011;6675;48.128;11.478;2024-03-08T07:28:41;33.47;;;11.95;;
13220;SDS011;6675;48.128;11.478;2024-03-08T07:31:07;29.20;;;12.13;;
13220;SDS011;6675;48.128;11.478;2024-03-08T07:33:48;31.70;;;12.55;;
13220;SDS011;6675;48.128;11.478;2024-03-08T07:36:18;32.72;;;13.02;;
13220;SDS011;6675;48.128;11.478;2024-03-08T07:38:49;32.10;;;13.40;;
13220;SDS011;6675;48.128;11.478;2024-03-08T07:41:15;28.83;;;12.00;;
13220;SDS011;6675;48.128;11.478;2024-03-08T07:43:41;30.05;;;11.95;;
13220;SDS011;6675;48.128;11.478;2024-03-08T07:46:07;27.58;;;11.77;;
13220;SDS011;6675;48.128;11.478;2024-03-08T07:48:35;34.00;;;12.45;;
13220;SDS011;6675;48.128;11.478;2024-03-08T07:51:01;29.95;;;12.10;;
13220;SDS011;6675;48.128;11.478;2024-03-08T07:53:28;27.30;;;12.55;;
13220;SDS011;6675;48.128;11.478;2024-03-08T07:55:53;32.45;;;12.30;;
13220;SDS011;6675;48.128;11.478;2024-03-08T07:58:19;31.15;;;12.35;;
13220;SDS011;6675;48.128;11.478;2024-03-08T08:00:45;30.75;;;13.45;;
13220;SDS011;6675;48.128;11.478;2024-03-08T08:03:11;26.33;;;11.05;;
13220;SDS011;6675;48.128;11.478;2024-03-08T08:05:37;28.50;;;12.88;;
13220;SDS011;6675;48.128;11.478;2024-03-08T08:08:12;29.40;;;12.65;;
13220;SDS011;6675;48.128;11.478;2024-03-08T08:10:38;27.17;;;11.95;;
13220;SDS011;6675;48.128;11.478;2024-03-08T08:13:03;29.02;;;13.63;;
13220;SDS011;6675;48.128;11.478;2024-03-08T08:15:32;25.50;;;11.93;;
13220;SDS011;6675;48.128;11.478;2024-03-08T08:18:00;31.75;;;12.25;;
13220;SDS011;6675;48.128;11.478;2024-03-08T08:20:27;26.92;;;12.45;;
13220;SDS011;6675;48.128;11.478;2024-03-08T08:22:53;27.08;;;12.07;;
13220;SDS011;6675;48.128;11.478;2024-03-08T08:25:20;25.02;;;11.60;;
13220;SDS011;6675;48.128;11.478;2024-03-08T08:27:47;26.27;;;11.70;;
13220;SDS011;6675;48.128;11.478;2024-03-08T08:30:13;26.27;;;12.20;;
13220;SDS011;6675;48.128;11.478;2024-03-08T08:32:39;24.30;;;11.57;;
13220;SDS011;6675;48.128;11.478;2024-03-08T08:35:05;25.25;;;11.40;;
13220;SDS011;6675;48.128;11.478;2024-03-08T08:37:31;22.92;;;11.23;;
13220;SDS011;6675;48.128;11.478;2024-03-08T08:39:57;23.85;;;12.02;;
13220;SDS011;6675;48.128;11.478;2024-03-08T08:42:23;25.30;;;13.10;;
13220;SDS011;6675;48.128;11.478;2024-03-08T08:44:49;26.10;;;11.75;;
13220;SDS011;6675;48.128;11.478;2024-03-08T08:47:15;22.65;;;12.13;;
13220;SDS011;6675;48.128;11.478;2024-03-08T08:49:43;22.65;;;12.50;;
13220;SDS011;6675;48.128;11.478;2024-03-08T08:52:11;21.33;;;11.75;;
13220;SDS011;6675;48.128;11.478;2024-03-08T08:54:36;22.73;;;13.07;;
13220;SDS011;6675;48.128;11.478;2024-03-08T08:57:02;22.63;;;13.27;;
13220;SDS011;6675;48.128;11.478;2024-03-08T08:59:32;20.98;;;12.55;;
13220;SDS011;6675;48.128;11.478;2024-03-08T09:02:00;20.45;;;12.25;;
13220;SDS011;6675;48.128;11.478;2024-03-08T09:04:26;20.23;;;12.32;;
13220;SDS011;6675;48.128;11.478;2024-03-08T09:06:54;22.35;;;13.23;;
13220;SDS011;6675;48.128;11.478;2024-03-08T09:09:19;22.27;;;12.93;;
13220;SDS011;6675;48.128;11.478;2024-03-08T09:11:47;19.23;;;12.02;;
13220;SDS011;6675;48.128;11.478;2024-03-08T09:14:12;19.83;;;13.00;;
13220;SDS011;6675;48.128;11.478;2024-03-08T09:16:39;20.05;;;12.93;;
13220;SDS011;6675;48.128;11.478;2024-03-08T09:19:04;18.77;;;12.80;;
13220;SDS011;6675;48.128;11.478;2024-03-08T09:21:31;20.17;;;13.50;;
13220;SDS011;6675;48.128;11.478;2024-03-08T09:23:57;20.13;;;12.75;;
13220;SDS011;6675;48.128;11.478;2024-03-08T09:26:23;15.93;;;11.80;;
13220;SDS011;6675;48.128;11.478;2024-03-08T09:28:49;19.13;;;13.25;;
13220;SDS011;6675;48.128;11.478;2024-03-08T09:31:14;17.30;;;12.30;;
13220;SDS011;6675;48.128;11.478;2024-03-08T09:33:42;18.92;;;13.75;;
13220;SDS011;6675;48.128;11.478;2024-03-08T09:36:07;16.58;;;12.20;;
13220;SDS011;6675;48.128;11.478;2024-03-08T09:38:33;18.13;;;12.50;;
13220;SDS011;6675;48.128;11.478;2024-03-08T09:41:02;17.60;;;12.57;;
13220;SDS011;6675;48.128;11.478;2024-03-08T09:43:29;16.30;;;11.75;;
13220;SDS011;6675;48.128;11.478;2024-03-08T09:45:55;19.48;;;13.77;;
13220;SDS011;6675;48.128;11.478;2024-03-08T09:48:22;17.95;;;13.80;;
13220;SDS011;6675;48.128;11.478;2024-03-08T09:50:48;18.42;;;13.88;;
13220;SDS011;6675;48.128;11.478;2024-03-08T09:53:14;17.35;;;12.73;;
13220;SDS011;6675;48.128;11.478;2024-03-08T09:55:40;16.65;;;12.95;;
13220;SDS011;6675;48.128;11.478;2024-03-08T09:58:10;19.55;;;14.63;;
13220;SDS011;6675;48.128;11.478;2024-03-08T10:00:55;17.73;;;14.00;;
13220;SDS011;6675;48.128;11.478;2024-03-08T10:03:22;18.45;;;14.32;;
13220;SDS011;6675;48.128;11.478;2024-03-08T10:05:51;17.80;;;13.73;;
13220;SDS011;6675;48.128;11.478;2024-03-08T10:08:17;16.45;;;13.10;;
13220;SDS011;6675;48.128;11.478;2024-03-08T10:10:42;15.15;;;12.02;;
13220;SDS011;6675;48.128;11.478;2024-03-08T10:13:08;15.75;;;11.82;;
13220;SDS011;6675;48.128;11.478;2024-03-08T10:15:36;14.82;;;12.35;;
13220;SDS011;6675;48.128;11.478;2024-03-08T10:18:03;16.42;;;12.98;;
13220;SDS011;6675;48.128;11.478;2024-03-08T10:20:30;15.55;;;12.40;;
13220;SDS011;6675;48.128;11.478;2024-03-08T10:23:02;16.52;;;13.18;;
13220;SDS011;6675;48.128;11.478;2024-03-08T10:25:30;16.70;;;13.50;;
13220;SDS011;6675;48.128;11.478;2024-03-08T10:30:25;15.80;;;12.55;;
13220;SDS011;6675;48.128;11.478;2024-03-08T10:32:50;15.40;;;12.77;;
13220;SDS011;6675;48.128;11.478;2024-03-08T10:35:16;15.88;;;12.90;;
13220;SDS011;6675;48.128;11.478;2024-03-08T10:40:16;14.38;;;11.88;;
13220;SDS011;6675;48.128;11.478;2024-03-08T10:43:01;13.95;;;11.23;;
13220;SDS011;6675;48.128;11.478;2024-03-08T10:51:03;15.48;;;11.15;;
13220;SDS011;6675;48.128;11.478;2024-03-08T10:53:29;14.30;;;12.02;;
13220;SDS011;6675;48.128;11.478;2024-03-08T10:55:58;13.60;;;11.27;;
13220;SDS011;6675;48.128;11.478;2024-03-08T10:58:25;13.63;;;11.60;;
13220;SDS011;6675;48.128;11.478;2024-03-08T11:00:55;14.70;;;11.60;;
13220;SDS011;6675;48.128;11.478;2024-03-08T11:06:09;13.55;;;11.55;;
13220;SDS011;6675;48.128;11.478;2024-03-08T11:08:43;12.60;;;10.52;;
13220;SDS011;6675;48.128;11.478;2024-03-08T11:11:28;14.57;;;11.75;;
13220;SDS011;6675;48.128;11.478;2024-03-08T11:13:59;13.05;;;10.68;;
13220;SDS011;6675;48.128;11.478;2024-03-08T11:19:01;14.32;;;11.43;;
13220;SDS011;6675;48.128;11.478;2024-03-08T11:21:35;14.57;;;11.07;;
13220;SDS011;6675;48.128;11.478;2024-03-08T11:24:11;13.95;;;10.65;;
13220;SDS011;6675;48.128;11.478;2024-03-08T11:26:38;12.10;;;10.63;;
13220;SDS011;6675;48.128;11.478;2024-03-08T11:31:52;13.07;;;10.85;;
13220;SDS011;6675;48.128;11.478;2024-03-08T11:34:19;11.45;;;9.85;;
13220;SDS011;6675;48.128;11.478;2024-03-08T11:36:47;14.10;;;10.40;;
13220;SDS011;6675;48.128;11.478;2024-03-08T11:39:13;12.57;;;9.18;;
13220;SDS011;6675;48.128;11.478;2024-03-08T11:41:40;9.55;;;8.27;;
13220;SDS011;6675;48.128;11.478;2024-03-08T11:44:06;12.18;;;9.95;;
13220;SDS011;6675;48.128;11.478;2024-03-08T11:46:33;12.80;;;9.60;;
13220;SDS011;6675;48.128;11.478;2024-03-08T11:48:59;12.93;;;10.48;;
13220;SDS011;6675;48.128;11.478;2024-03-08T11:51:25;13.15;;;11.45;;
13220;SDS011;6675;48.128;11.478;2024-03-08T11:53:51;13.05;;;10.23;;
13220;SDS011;6675;48.128;11.478;2024-03-08T11:56:18;12.52;;;9.95;;
13220;SDS011;6675;48.128;11.478;2024-03-08T11:58:53;11.85;;;9.15;;
13220;SDS011;6675;48.128;11.478;2024-03-08T12:01:22;11.35;;;9.10;;
13220;SDS011;6675;48.128;11.478;2024-03-08T12:03:55;11.40;;;9.40;;
13220;SDS011;6675;48.128;11.478;2024-03-08T12:06:25;11.57;;;9.32;;
13220;SDS011;6675;48.128;11.478;2024-03-08T12:08:52;13.20;;;10.02;;
13220;SDS011;6675;48.128;11.478;2024-03-08T12:11:18;11.77;;;9.30;;
13220;SDS011;6675;48.128;11.478;2024-03-08T12:13:48;11.43;;;8.93;;
13220;SDS011;6675;48.128;11.478;2024-03-08T12:16:16;12.32;;;10.02;;
13220;SDS011;6675;48.128;11.478;2024-03-08T12:18:46;10.38;;;9.20;;
13220;SDS011;6675;48.128;11.478;2024-03-08T12:21:13;12.80;;;9.68;;
13220;SDS011;6675;48.128;11.478;2024-03-08T12:23:42;11.30;;;9.07;;
13220;SDS011;6675;48.128;11.478;2024-03-08T12:26:10;10.68;;;8.63;;
13220;SDS011;6675;48.128;11.478;2024-03-08T12:28:38;11.38;;;8.95;;
13220;SDS011;6675;48.128;11.478;2024-03-08T12:31:12;11.18;;;8.82;;
13220;SDS011;6675;48.128;11.478;2024-03-08T12:33:51;10.88;;;8.40;;
13220;SDS011;6675;48.128;11.478;2024-03-08T12:36:19;10.65;;;8.57;;
13220;SDS011;6675;48.128;11.478;2024-03-08T12:38:45;11.68;;;8.77;;
13220;SDS011;6675;48.128;11.478;2024-03-08T12:41:15;11.32;;;8.38;;
13220;SDS011;6675;48.128;11.478;2024-03-08T12:43:42;14.60;;;8.48;;
13220;SDS011;6675;48.128;11.478;2024-03-08T12:46:13;11.80;;;8.43;;
13220;SDS011;6675;48.128;11.478;2024-03-08T12:48:46;11.90;;;9.18;;
13220;SDS011;6675;48.128;11.478;2024-03-08T12:51:15;12.10;;;8.77;;
13220;SDS011;6675;48.128;11.478;2024-03-08T12:53:43;10.80;;;8.20;;
13220;SDS011;6675;48.128;11.478;2024-03-08T12:56:20;10.63;;;8.63;;
13220;SDS011;6675;48.128;11.478;2024-03-08T12:58:54;10.57;;;8.38;;
13220;SDS011;6675;48.128;11.478;2024-03-08T13:01:20;11.25;;;7.80;;
13220;SDS011;6675;48.128;11.478;2024-03-08T13:03:45;9.88;;;7.72;;
13220;SDS011;6675;48.128;11.478;2024-03-08T13:06:11;10.07;;;8.10;;
13220;SDS011;6675;48.128;11.478;2024-03-08T13:08:37;11.70;;;8.63;;
13220;SDS011;6675;48.128;11.478;2024-03-08T13:11:09;10.50;;;8.50;;
13220;SDS011;6675;48.128;11.478;2024-03-08T13:13:37;11.55;;;9.38;;
13220;SDS011;6675;48.128;11.478;2024-03-08T13:16:05;13.02;;;9.80;;
13220;SDS011;6675;48.128;11.478;2024-03-08T13:18:33;13.13;;;9.77;;
13220;SDS011;6675;48.128;11.478;2024-03-08T13:20:59;12.75;;;9.32;;
13220;SDS011;6675;48.128;11.478;2024-03-08T13:23:29;10.90;;;8.80;;
13220;SDS011;6675;48.128;11.478;2024-03-08T13:25:55;10.10;;;8.38;;
13220;SDS011;6675;48.128;11.478;2024-03-08T13:28:22;10.15;;;8.73;;
13220;SDS011;6675;48.128;11.478;2024-03-08T13:30:48;11.13;;;9.25;;
13220;SDS011;6675;48.128;11.478;2024-03-08T13:33:13;12.77;;;8.93;;
13220;SDS011;6675;48.128;11.478;2024-03-08T13:35:39;10.75;;;8.60;;
13220;SDS011;6675;48.128;11.478;2024-03-08T13:38:06;12.13;;;8.90;;
13220;SDS011;6675;48.128;11.478;2024-03-08T13:40:34;10.90;;;8.75;;
13220;SDS011;6675;48.128;11.478;2024-03-08T13:43:00;9.00;;;7.15;;
13220;SDS011;6675;48.128;11.478;2024-03-08T13:45:26;8.85;;;7.10;;
13220;SDS011;6675;48.128;11.478;2024-03-08T13:47:52;11.40;;;8.95;;
13220;SDS011;6675;48.128;11.478;2024-03-08T13:50:19;9.93;;;7.85;;
13220;SDS011;6675;48.128;11.478;2024-03-08T13:52:48;10.45;;;8.43;;
13220;SDS011;6675;48.128;11.478;2024-03-08T13:55:16;9.73;;;7.63;;
13220;SDS011;6675;48.128;11.478;2024-03-08T13:57:47;10.57;;;7.32;;
13220;SDS011;6675;48.128;11.478;2024-03-08T14:00:13;9.73;;;7.35;;
13220;SDS011;6675;48.128;11.478;2024-03-08T14:02:39;9.85;;;7.47;;
13220;SDS011;6675;48.128;11.478;2024-03-08T14:05:06;10.15;;;7.30;;
13220;SDS011;6675;48.128;11.478;2024-03-08T14:07:34;8.55;;;7.20;;
13220;SDS011;6675;48.128;11.478;2024-03-08T14:10:03;12.40;;;8.63;;
13220;SDS011;6675;48.128;11.478;2024-03-08T14:12:31;11.35;;;7.20;;
13220;SDS011;6675;48.128;11.478;2024-03-08T14:14:57;11.15;;;7.75;;
13220;SDS011;6675;48.128;11.478;2024-03-08T14:17:26;11.50;;;7.72;;
13220;SDS011;6675;48.128;11.478;2024-03-08T14:19:53;11.40;;;8.10;;
13220;SDS011;6675;48.128;11.478;2024-03-08T14:22:19;10.10;;;7.45;;
13220;SDS011;6675;48.128;11.478;2024-03-08T14:24:45;10.98;;;7.93;;
13220;SDS011;6675;48.128;11.478;2024-03-08T14:27:10;10.43;;;7.80;;
13220;SDS011;6675;48.128;11.478;2024-03-08T14:29:37;9.95;;;7.43;;
13220;SDS011;6675;48.128;11.478;2024-03-08T14:32:04;10.57;;;7.05;;
13220;SDS011;6675;48.128;11.478;2024-03-08T14:34:31;8.57;;;6.22;;
13220;SDS011;6675;48.128;11.478;2024-03-08T14:36:59;10.32;;;7.18;;
13220;SDS011;6675;48.128;11.478;2024-03-08T14:39:25;11.05;;;7.88;;
13220;SDS011;6675;48.128;11.478;2024-03-08T14:41:54;11.00;;;7.30;;
13220;SDS011;6675;48.128;11.478;2024-03-08T14:44:21;10.60;;;7.75;;
13220;SDS011;6675;48.128;11.478;2024-03-08T14:46:51;10.68;;;7.50;;
13220;SDS011;6675;48.128;11.478;2024-03-08T14:49:21;12.57;;;8.00;;
13220;SDS011;6675;48.128;11.478;2024-03-08T14:51:47;10.63;;;7.00;;